TimeCST,TemperatureF,Dew PointF,Humidity,Sea Level PressureIn,VisibilityMPH,Wind Direction,Wind SpeedMPH,Gust SpeedMPH,PrecipitationIn,Events,Conditions,WindDirDegrees,DateUTC
12:15 AM,21.9,16.5,80,30.10,10.0,ESE,8.1,-,N/A,,Clear,110,2012-12-09 06:15:00
12:35 AM,22.1,16.7,80,30.10,10.0,ESE,9.2,-,N/A,,Clear,110,2012-12-09 06:35:00
12:55 AM,22.3,17.4,82,30.10,10.0,ESE,9.2,-,N/A,,Clear,110,2012-12-09 06:55:00
1:15 AM,22.5,17.4,81,30.10,10.0,ESE,9.2,-,N/A,,Clear,110,2012-12-09 07:15:00
1:35 AM,22.6,17.6,81,30.11,10.0,ESE,8.1,-,N/A,,Clear,110,2012-12-09 07:35:00
1:55 AM,23.0,18.1,82,30.13,10.0,East,9.2,-,N/A,,Clear,100,2012-12-09 07:55:00
2:15 AM,23.0,18.1,82,30.14,10.0,East,5.8,-,N/A,,Clear,80,2012-12-09 08:15:00
2:35 AM,23.0,18.0,81,30.13,10.0,East,5.8,-,N/A,,Scattered Clouds,90,2012-12-09 08:35:00
2:55 AM,23.5,18.3,80,30.11,10.0,East,6.9,-,N/A,,Mostly Cloudy,80,2012-12-09 08:55:00
3:15 AM,23.5,18.5,81,30.09,10.0,East,12.7,-,N/A,,Scattered Clouds,90,2012-12-09 09:15:00
3:35 AM,23.7,18.5,80,30.08,10.0,East,15.0,-,N/A,,Scattered Clouds,100,2012-12-09 09:35:00
3:55 AM,23.9,18.5,80,30.08,10.0,East,10.4,-,N/A,,Scattered Clouds,90,2012-12-09 09:55:00
4:15 AM,23.9,18.9,81,30.07,10.0,East,11.5,-,N/A,,Scattered Clouds,90,2012-12-09 10:15:00
4:35 AM,24.4,19.2,81,30.07,10.0,East,8.1,-,N/A,,Mostly Cloudy,80,2012-12-09 10:35:00
4:55 AM,24.6,19.4,81,30.06,10.0,East,11.5,-,N/A,,Overcast,80,2012-12-09 10:55:00
5:15 AM,24.6,19.9,82,30.08,10.0,East,11.5,18.4,N/A,,Overcast,90,2012-12-09 11:15:00
5:35 AM,25.2,20.8,84,30.08,10.0,East,9.2,-,N/A,,Overcast,80,2012-12-09 11:35:00
5:55 AM,25.5,21.2,84,30.08,10.0,ENE,9.2,-,N/A,,Overcast,70,2012-12-09 11:55:00
6:15 AM,25.5,21.4,84,30.08,10.0,East,9.2,-,N/A,,Overcast,80,2012-12-09 12:15:00
6:35 AM,25.7,21.7,85,30.08,10.0,East,10.4,-,N/A,,Overcast,90,2012-12-09 12:35:00
6:55 AM,25.7,21.7,85,30.08,10.0,East,8.1,-,N/A,,Overcast,80,2012-12-09 12:55:00
7:15 AM,25.7,22.1,86,30.08,10.0,East,11.5,16.1,N/A,,Overcast,90,2012-12-09 13:15:00
7:35 AM,25.7,22.1,86,30.07,10.0,East,12.7,-,N/A,,Overcast,90,2012-12-09 13:35:00
7:55 AM,25.7,22.5,88,30.05,10.0,East,12.7,-,N/A,,Overcast,90,2012-12-09 13:55:00
8:15 AM,25.9,22.8,88,30.04,10.0,East,11.5,17.3,N/A,,Overcast,90,2012-12-09 14:15:00
8:35 AM,26.1,22.8,88,30.04,10.0,East,12.7,-,N/A,,Overcast,100,2012-12-09 14:35:00
8:55 AM,26.2,23.0,88,30.04,10.0,East,15.0,20.7,N/A,,Overcast,100,2012-12-09 14:55:00
9:15 AM,26.6,23.0,86,30.04,10.0,East,15.0,19.6,N/A,,Overcast,100,2012-12-09 15:15:00
9:35 AM,27.0,23.2,86,30.04,10.0,ESE,16.1,19.6,N/A,,Overcast,110,2012-12-09 15:35:00
9:55 AM,27.1,23.2,85,30.03,10.0,East,12.7,18.4,N/A,,Overcast,100,2012-12-09 15:55:00
10:15 AM,27.3,23.2,84,30.03,10.0,ESE,15.0,19.6,N/A,,Mostly Cloudy,110,2012-12-09 16:15:00
10:35 AM,27.5,23.5,85,30.03,10.0,East,10.4,-,N/A,,Mostly Cloudy,100,2012-12-09 16:35:00
10:55 AM,27.5,23.7,86,30.02,7.0,East,11.5,-,N/A,Snow,Light Snow,90,2012-12-09 16:55:00
11:15 AM,27.1,24.1,88,30.00,3.0,East,11.5,-,N/A,Snow,Light Snow,90,2012-12-09 17:15:00
11:35 AM,27.0,24.6,91,29.99,1.5,East,10.4,-,N/A,Snow,Light Snow,90,2012-12-09 17:35:00
11:55 AM,27.0,24.6,91,29.97,1.8,East,12.7,-,N/A,Snow,Light Snow,80,2012-12-09 17:55:00
12:15 PM,27.0,24.6,91,29.95,1.5,East,11.5,-,N/A,Snow,Light Snow,80,2012-12-09 18:15:00
12:35 PM,27.1,24.8,91,29.94,1.2,East,11.5,18.4,N/A,Snow,Light Snow,80,2012-12-09 18:35:00
12:55 PM,27.1,24.8,91,29.92,1.2,ENE,12.7,-,N/A,Snow,Light Snow,70,2012-12-09 18:55:00
1:15 PM,27.1,24.8,91,29.90,1.0,ENE,13.8,19.6,N/A,Snow,Light Snow,70,2012-12-09 19:15:00
1:35 PM,27.1,24.8,91,29.89,1.0,ENE,13.8,18.4,N/A,Snow,Light Snow,70,2012-12-09 19:35:00
1:55 PM,27.3,25.2,92,29.88,1.0,ENE,11.5,-,N/A,Snow,Light Snow,60,2012-12-09 19:55:00
2:15 PM,27.5,25.3,92,29.87,1.0,ENE,11.5,-,N/A,Snow,Light Snow,70,2012-12-09 20:15:00
2:35 PM,27.5,25.5,92,29.87,1.0,ENE,11.5,-,N/A,Snow,Light Snow,60,2012-12-09 20:35:00
2:55 PM,27.3,25.5,93,29.85,0.8,ENE,12.7,-,N/A,Snow,Light Snow,70,2012-12-09 20:55:00
3:15 PM,27.3,25.5,93,29.84,1.2,ENE,12.7,-,N/A,Snow,Light Snow,60,2012-12-09 21:15:00
3:35 PM,27.5,25.7,93,29.83,1.2,ENE,11.5,-,N/A,Snow,Light Snow,60,2012-12-09 21:35:00
3:55 PM,27.5,25.5,92,29.83,1.0,ENE,10.4,-,N/A,Snow,Light Snow,70,2012-12-09 21:55:00
4:15 PM,27.1,25.2,92,29.83,1.8,ENE,13.8,-,N/A,Snow,Light Snow,70,2012-12-09 22:15:00
4:35 PM,27.1,25.0,92,29.81,3.0,ENE,11.5,18.4,N/A,Snow,Light Snow,70,2012-12-09 22:35:00
4:55 PM,27.0,25.3,94,29.81,1.2,ENE,12.7,-,N/A,Snow,Light Snow,60,2012-12-09 22:55:00
5:15 PM,26.6,25.3,95,29.81,1.5,NE,10.4,-,N/A,Snow,Light Snow,50,2012-12-09 23:15:00
5:35 PM,26.4,25.2,95,29.81,3.0,NE,11.5,-,N/A,Snow,Light Snow,40,2012-12-09 23:35:00
5:55 PM,26.2,24.8,94,29.82,2.5,NE,10.4,-,N/A,Snow,Light Snow,40,2012-12-09 23:55:00
6:15 PM,26.1,24.8,95,29.82,2.5,NE,10.4,-,N/A,Snow,Light Snow,40,2012-12-10 00:15:00
6:35 PM,25.7,24.8,96,29.81,2.5,NE,11.5,-,N/A,Snow,Light Snow,40,2012-12-10 00:35:00
6:55 PM,25.7,24.6,96,29.82,2.0,NE,11.5,-,N/A,Snow,Light Snow,40,2012-12-10 00:55:00
7:15 PM,25.7,24.6,96,29.80,1.8,NE,10.4,-,N/A,Snow,Light Snow,50,2012-12-10 01:15:00
7:35 PM,25.5,24.4,96,29.80,3.0,NE,10.4,-,N/A,Snow,Light Snow,40,2012-12-10 01:35:00
7:55 PM,25.7,24.6,96,29.80,2.0,NE,11.5,-,N/A,Snow,Light Snow,50,2012-12-10 01:55:00
8:15 PM,25.7,24.6,96,29.77,1.8,NE,12.7,-,N/A,Snow,Light Snow,50,2012-12-10 02:15:00
8:35 PM,26.1,24.4,94,29.76,1.5,ENE,15.0,-,N/A,Snow,Light Snow,60,2012-12-10 02:35:00
8:55 PM,26.1,24.3,93,29.75,1.8,ENE,13.8,-,N/A,Snow,Light Snow,60,2012-12-10 02:55:00
9:15 PM,26.2,23.9,91,29.75,2.5,ENE,15.0,-,N/A,Snow,Light Snow,60,2012-12-10 03:15:00
9:35 PM,26.1,23.9,92,29.74,2.5,ENE,12.7,-,N/A,Snow,Light Snow,60,2012-12-10 03:35:00
9:55 PM,25.7,23.9,93,29.74,3.0,NE,12.7,-,N/A,Snow,Light Snow,50,2012-12-10 03:55:00
10:15 PM,25.7,23.9,93,29.74,4.0,NE,11.5,-,N/A,Snow,Light Snow,50,2012-12-10 04:15:00
10:55 PM,25.2,23.5,94,29.74,4.0,NE,11.5,-,N/A,Snow,Light Snow,40,2012-12-10 04:55:00
11:15 PM,24.6,23.0,94,29.74,4.0,NE,11.5,-,N/A,Snow,Light Snow,40,2012-12-10 05:15:00
11:35 PM,24.4,22.6,93,29.73,2.5,NE,11.5,-,N/A,Snow,Light Snow,40,2012-12-10 05:35:00
11:55 PM,24.3,22.5,93,29.73,1.8,NNE,11.5,-,N/A,Snow,Light Snow,30,2012-12-10 05:55:00